Terminal Aerodrome Forecast
Issued by NWS

Home | Current Version | Previous Version | Graphics & Text | Print | Product List | Glossary On
Versions: 1 2 3 4 5 6 7 8 9 10 11 12 13 14 15 16 17
000
FTUS43 KICT 090500
TAFHUT
TAF
KHUT 090520Z 0906/1006 VRB03KT P6SM SKC
     FM091600 15007KT P6SM BKN100
     FM092000 15009KT P6SM SCT100
     FM100400 14010KT P6SM VCTS BKN080CB=

USA.gov is the U.S. government's official web portal to all federal, state and local government web resources and services.